Key West Nas /Boca Chica Field/ Airport
KNQX : now visible

Airfield :











YOU CAN JOIN US ON...

 
LOGIN :

Register | Disclaimer

   EN    FR    IT 

 









Legend :    VFR   Marginal VFR   IFR   Intensive IFR   Very Intensive IFR
Visi :
Ceiling :
>= 8 km
>= 3000ft
5 to 8 km
1000 to 3000 ft
1500m to 5 km
500 to 1000 ft
800 to 1500m
200 to 500 ft
< 800m
< 200 ft
Symbols :   Thunderstorms  Fog  Heavy snow  Heavy precipitations  Wind > 20 kt






- Airport Elevation : 6 ft


KNQX - Key West Nas /Boca Chica Field/

CURRENT METAR :
  • 051853Z 06007KT 10SM BKN250 23/15 A3007 RMK AO2 SLP179 T02330150 $

EXPIRED METARs :
  • 051753Z 07007KT 10SM CLR 23/14 A3008 RMK AO2 SLP185 T02330139 10239 20206 58015 $
  • 051653Z 08009KT 10SM FEW035 SCT250 23/14 A3011 RMK AO2 SLP194 T02330139 $

TAF TAF KNQX
Valid from the 05 at 15:00 until the 06 at 15:00 UTC


0515/0615 06010KT 9999 SCT035 QNH3002INS
FM060100 06006KT 9999 FEW035 QNH3004INS T26/0519Z T21/0611Z FN20027



MET'MAP, your aeronautical weather chart ! - Copyright ORBIFLY December 2007 - Disclaimer

ORBIFLY MET'MAP TEAM :

Programming & Development : Alexandra Zaïnal
Concept & original design : Baudouin d'Aumeries
Assistance for programming : Marc-Olivier Méhu
Technical & hardware support : Manuel Goepfert

Contact : metmap@orbifly.com




SOURCES & CREDITS :

   NOAA       Earth
Advisory